sensor_id;sensor_type;location;lat;lon;timestamp;temperature;humidity
10901;DHT22;5503;53.208;10.392;2024-02-28T00:02:20;7.20;99.90
10901;DHT22;5503;53.208;10.392;2024-02-28T00:04:48;6.20;99.90
10901;DHT22;5503;53.208;10.392;2024-02-28T00:07:15;7.10;99.90
10901;DHT22;5503;53.208;10.392;2024-02-28T00:09:43;7.30;99.90
10901;DHT22;5503;53.208;10.392;2024-02-28T00:12:10;7.40;99.90
10901;DHT22;5503;53.208;10.392;2024-02-28T00:14:37;7.40;99.90
10901;DHT22;5503;53.208;10.392;2024-02-28T00:17:04;6.30;99.90
10901;DHT22;5503;53.208;10.392;2024-02-28T00:19:31;7.40;99.90
10901;DHT22;5503;53.208;10.392;2024-02-28T00:21:59;7.40;99.90
10901;DHT22;5503;53.208;10.392;2024-02-28T00:24:26;7.30;99.90
10901;DHT22;5503;53.208;10.392;2024-02-28T00:26:53;7.40;99.90
10901;DHT22;5503;53.208;10.392;2024-02-28T00:29:20;7.40;99.90
10901;DHT22;5503;53.208;10.392;2024-02-28T00:31:47;7.50;99.90
10901;DHT22;5503;53.208;10.392;2024-02-28T00:34:14;7.60;99.90
10901;DHT22;5503;53.208;10.392;2024-02-28T00:36:40;7.50;89.30
10901;DHT22;5503;53.208;10.392;2024-02-28T00:39:09;7.40;99.90
10901;DHT22;5503;53.208;10.392;2024-02-28T00:41:36;7.40;99.90
10901;DHT22;5503;53.208;10.392;2024-02-28T00:44:03;7.40;99.90
10901;DHT22;5503;53.208;10.392;2024-02-28T00:46:30;7.30;1.00
10901;DHT22;5503;53.208;10.392;2024-02-28T00:48:57;7.20;99.90
10901;DHT22;5503;53.208;10.392;2024-02-28T00:51:24;7.00;99.90
10901;DHT22;5503;53.208;10.392;2024-02-28T00:53:50;6.90;1.00
10901;DHT22;5503;53.208;10.392;2024-02-28T00:56:19;7.00;1.00
10901;DHT22;5503;53.208;10.392;2024-02-28T00:58:45;7.10;99.90
10901;DHT22;5503;53.208;10.392;2024-02-28T01:01:12;7.10;99.90
10901;DHT22;5503;53.208;10.392;2024-02-28T01:03:39;7.00;48.00
10901;DHT22;5503;53.208;10.392;2024-02-28T01:06:06;6.60;99.90
10901;DHT22;5503;53.208;10.392;2024-02-28T01:08:33;6.50;1.00
10901;DHT22;5503;53.208;10.392;2024-02-28T01:11:00;6.30;1.00
10901;DHT22;5503;53.208;10.392;2024-02-28T01:13:28;7.60;1.00
10901;DHT22;5503;53.208;10.392;2024-02-28T01:15:55;6.40;1.00
10901;DHT22;5503;53.208;10.392;2024-02-28T01:18:22;6.60;1.00
10901;DHT22;5503;53.208;10.392;2024-02-28T01:20:48;6.60;1.00
10901;DHT22;5503;53.208;10.392;2024-02-28T01:23:17;6.80;1.00
10901;DHT22;5503;53.208;10.392;2024-02-28T01:25:43;6.80;99.90
10901;DHT22;5503;53.208;10.392;2024-02-28T01:28:10;9.90;1.00
10901;DHT22;5503;53.208;10.392;2024-02-28T01:30:38;6.90;1.00
10901;DHT22;5503;53.208;10.392;2024-02-28T01:33:05;6.90;99.90
10901;DHT22;5503;53.208;10.392;2024-02-28T01:35:32;6.90;99.90
10901;DHT22;5503;53.208;10.392;2024-02-28T01:37:59;6.90;99.90
10901;DHT22;5503;53.208;10.392;2024-02-28T01:40:26;6.80;1.00
10901;DHT22;5503;53.208;10.392;2024-02-28T01:42:53;6.70;99.90
10901;DHT22;5503;53.208;10.392;2024-02-28T01:45:19;6.70;99.90
10901;DHT22;5503;53.208;10.392;2024-02-28T01:47:48;6.60;99.90
10901;DHT22;5503;53.208;10.392;2024-02-28T01:50:16;4.30;1.00
10901;DHT22;5503;53.208;10.392;2024-02-28T01:52:42;6.50;1.00
10901;DHT22;5503;53.208;10.392;2024-02-28T01:55:09;9.60;99.90
10901;DHT22;5503;53.208;10.392;2024-02-28T01:57:37;9.30;99.90
10901;DHT22;5503;53.208;10.392;2024-02-28T02:00:06;6.60;99.90
10901;DHT22;5503;53.208;10.392;2024-02-28T02:02:34;6.60;78.90
10901;DHT22;5503;53.208;10.392;2024-02-28T02:05:02;6.70;96.50
10901;DHT22;5503;53.208;10.392;2024-02-28T02:07:30;6.70;99.90
10901;DHT22;5503;53.208;10.392;2024-02-28T02:09:57;6.70;1.00
10901;DHT22;5503;53.208;10.392;2024-02-28T02:12:24;6.80;1.00
10901;DHT22;5503;53.208;10.392;2024-02-28T02:14:51;6.80;1.00
10901;DHT22;5503;53.208;10.392;2024-02-28T02:17:18;8.10;56.50
10901;DHT22;5503;53.208;10.392;2024-02-28T02:19:45;6.70;99.90
10901;DHT22;5503;53.208;10.392;2024-02-28T02:22:14;6.70;99.90
10901;DHT22;5503;53.208;10.392;2024-02-28T02:24:42;6.50;99.90
10901;DHT22;5503;53.208;10.392;2024-02-28T02:27:09;6.50;99.90
10901;DHT22;5503;53.208;10.392;2024-02-28T02:29:36;6.60;99.90
10901;DHT22;5503;53.208;10.392;2024-02-28T02:32:03;6.60;99.90
10901;DHT22;5503;53.208;10.392;2024-02-28T02:34:30;6.60;99.90
10901;DHT22;5503;53.208;10.392;2024-02-28T02:36:57;6.50;99.90
10901;DHT22;5503;53.208;10.392;2024-02-28T02:39:23;6.50;99.90
10901;DHT22;5503;53.208;10.392;2024-02-28T02:41:52;3.80;99.90
10901;DHT22;5503;53.208;10.392;2024-02-28T02:44:18;5.80;1.00
10901;DHT22;5503;53.208;10.392;2024-02-28T02:46:45;6.00;1.00
10901;DHT22;5503;53.208;10.392;2024-02-28T02:49:13;6.00;1.00
10901;DHT22;5503;53.208;10.392;2024-02-28T02:51:40;6.10;1.00
10901;DHT22;5503;53.208;10.392;2024-02-28T02:54:08;6.20;1.00
10901;DHT22;5503;53.208;10.392;2024-02-28T02:56:36;6.20;1.00
10901;DHT22;5503;53.208;10.392;2024-02-28T02:59:04;6.10;99.90
10901;DHT22;5503;53.208;10.392;2024-02-28T03:01:31;6.10;99.90
10901;DHT22;5503;53.208;10.392;2024-02-28T03:03:57;6.10;99.90
10901;DHT22;5503;53.208;10.392;2024-02-28T03:06:24;6.10;99.90
10901;DHT22;5503;53.208;10.392;2024-02-28T03:08:51;6.10;99.90
10901;DHT22;5503;53.208;10.392;2024-02-28T03:11:18;6.10;99.90
10901;DHT22;5503;53.208;10.392;2024-02-28T03:13:45;6.20;99.90
10901;DHT22;5503;53.208;10.392;2024-02-28T03:16:13;6.20;99.90
10901;DHT22;5503;53.208;10.392;2024-02-28T03:18:40;8.10;99.90
10901;DHT22;5503;53.208;10.392;2024-02-28T03:21:07;9.00;99.90
10901;DHT22;5503;53.208;10.392;2024-02-28T03:23:34;6.10;99.90
10901;DHT22;5503;53.208;10.392;2024-02-28T03:26:01;6.10;1.00
10901;DHT22;5503;53.208;10.392;2024-02-28T03:28:29;6.20;1.00
10901;DHT22;5503;53.208;10.392;2024-02-28T03:30:55;6.30;99.90
10901;DHT22;5503;53.208;10.392;2024-02-28T03:33:24;6.30;99.90
10901;DHT22;5503;53.208;10.392;2024-02-28T03:35:51;6.30;99.90
10901;DHT22;5503;53.208;10.392;2024-02-28T03:38:18;5.90;1.00
10901;DHT22;5503;53.208;10.392;2024-02-28T03:40:45;5.90;1.00
10901;DHT22;5503;53.208;10.392;2024-02-28T03:43:12;5.60;1.00
10901;DHT22;5503;53.208;10.392;2024-02-28T03:45:39;5.30;62.80
10901;DHT22;5503;53.208;10.392;2024-02-28T03:48:06;5.20;99.90
10901;DHT22;5503;53.208;10.392;2024-02-28T03:50:35;5.20;99.90
10901;DHT22;5503;53.208;10.392;2024-02-28T03:53:01;5.40;98.90
10901;DHT22;5503;53.208;10.392;2024-02-28T03:55:28;5.60;1.00
10901;DHT22;5503;53.208;10.392;2024-02-28T03:57:55;5.80;1.00
10901;DHT22;5503;53.208;10.392;2024-02-28T04:00:22;5.80;1.00
10901;DHT22;5503;53.208;10.392;2024-02-28T04:02:50;6.00;99.90
10901;DHT22;5503;53.208;10.392;2024-02-28T04:05:17;6.00;99.90
10901;DHT22;5503;53.208;10.392;2024-02-28T04:07:45;5.30;99.90
10901;DHT22;5503;53.208;10.392;2024-02-28T04:10:12;6.10;99.90
10901;DHT22;5503;53.208;10.392;2024-02-28T04:12:42;6.30;99.90
10901;DHT22;5503;53.208;10.392;2024-02-28T04:15:10;6.10;6.20
10901;DHT22;5503;53.208;10.392;2024-02-28T04:17:37;6.10;26.70
10901;DHT22;5503;53.208;10.392;2024-02-28T04:20:08;5.90;99.90
10901;DHT22;5503;53.208;10.392;2024-02-28T04:22:41;5.80;99.90
10901;DHT22;5503;53.208;10.392;2024-02-28T04:25:10;5.90;99.90
10901;DHT22;5503;53.208;10.392;2024-02-28T04:27:37;5.70;1.00
10901;DHT22;5503;53.208;10.392;2024-02-28T04:30:05;5.60;99.90
10901;DHT22;5503;53.208;10.392;2024-02-28T04:32:32;5.40;1.00
10901;DHT22;5503;53.208;10.392;2024-02-28T04:34:59;5.30;1.00
10901;DHT22;5503;53.208;10.392;2024-02-28T04:37:25;5.30;1.00
10901;DHT22;5503;53.208;10.392;2024-02-28T04:39:52;5.00;99.90
10901;DHT22;5503;53.208;10.392;2024-02-28T04:42:20;5.10;99.90
10901;DHT22;5503;53.208;10.392;2024-02-28T04:44:47;5.20;99.90
10901;DHT22;5503;53.208;10.392;2024-02-28T04:47:14;5.00;99.90
10901;DHT22;5503;53.208;10.392;2024-02-28T04:49:41;4.70;1.00
10901;DHT22;5503;53.208;10.392;2024-02-28T04:52:08;4.70;1.00
10901;DHT22;5503;53.208;10.392;2024-02-28T04:54:35;5.00;1.00
10901;DHT22;5503;53.208;10.392;2024-02-28T04:57:02;5.10;1.00
10901;DHT22;5503;53.208;10.392;2024-02-28T04:59:30;5.20;99.90
10901;DHT22;5503;53.208;10.392;2024-02-28T05:01:57;5.00;99.90
10901;DHT22;5503;53.208;10.392;2024-02-28T05:04:24;4.90;1.00
10901;DHT22;5503;53.208;10.392;2024-02-28T05:06:52;4.90;1.00
10901;DHT22;5503;53.208;10.392;2024-02-28T05:09:19;5.00;1.00
10901;DHT22;5503;53.208;10.392;2024-02-28T05:11:46;4.70;1.00
10901;DHT22;5503;53.208;10.392;2024-02-28T05:14:12;4.70;1.00
10901;DHT22;5503;53.208;10.392;2024-02-28T05:16:41;4.90;1.00
10901;DHT22;5503;53.208;10.392;2024-02-28T05:19:08;4.80;1.00
10901;DHT22;5503;53.208;10.392;2024-02-28T05:21:39;4.60;41.80
10901;DHT22;5503;53.208;10.392;2024-02-28T05:24:07;4.50;99.90
10901;DHT22;5503;53.208;10.392;2024-02-28T05:26:34;4.30;99.90
10901;DHT22;5503;53.208;10.392;2024-02-28T05:29:02;4.10;1.00
10901;DHT22;5503;53.208;10.392;2024-02-28T05:31:29;4.20;1.00
10901;DHT22;5503;53.208;10.392;2024-02-28T05:33:59;4.40;99.90
10901;DHT22;5503;53.208;10.392;2024-02-28T05:36:28;4.60;99.90
10901;DHT22;5503;53.208;10.392;2024-02-28T05:38:56;4.50;19.80
10901;DHT22;5503;53.208;10.392;2024-02-28T05:41:23;4.50;99.90
10901;DHT22;5503;53.208;10.392;2024-02-28T05:43:51;4.50;27.80
10901;DHT22;5503;53.208;10.392;2024-02-28T05:46:18;4.30;99.90
10901;DHT22;5503;53.208;10.392;2024-02-28T05:48:46;4.20;99.90
10901;DHT22;5503;53.208;10.392;2024-02-28T05:51:15;4.30;99.90
10901;DHT22;5503;53.208;10.392;2024-02-28T05:53:42;4.30;99.90
10901;DHT22;5503;53.208;10.392;2024-02-28T05:56:09;4.30;99.90
10901;DHT22;5503;53.208;10.392;2024-02-28T05:58:39;4.40;99.90
10901;DHT22;5503;53.208;10.392;2024-02-28T06:01:06;4.50;99.90
10901;DHT22;5503;53.208;10.392;2024-02-28T06:03:33;4.80;99.90
10901;DHT22;5503;53.208;10.392;2024-02-28T06:06:00;4.70;10.30
10901;DHT22;5503;53.208;10.392;2024-02-28T06:08:32;4.80;1.00
10901;DHT22;5503;53.208;10.392;2024-02-28T06:10:58;4.60;51.10
10901;DHT22;5503;53.208;10.392;2024-02-28T06:13:26;4.60;99.90
10901;DHT22;5503;53.208;10.392;2024-02-28T06:15:53;4.70;88.70
10901;DHT22;5503;53.208;10.392;2024-02-28T06:18:20;4.90;1.00
10901;DHT22;5503;53.208;10.392;2024-02-28T06:20:48;4.90;1.00
10901;DHT22;5503;53.208;10.392;2024-02-28T06:23:15;4.80;1.00
10901;DHT22;5503;53.208;10.392;2024-02-28T06:25:43;4.70;1.00
10901;DHT22;5503;53.208;10.392;2024-02-28T06:28:10;4.70;1.00
10901;DHT22;5503;53.208;10.392;2024-02-28T06:30:37;4.70;1.00
10901;DHT22;5503;53.208;10.392;2024-02-28T06:33:04;6.60;1.00
10901;DHT22;5503;53.208;10.392;2024-02-28T06:35:31;4.70;1.00
10901;DHT22;5503;53.208;10.392;2024-02-28T06:37:58;4.80;1.00
10901;DHT22;5503;53.208;10.392;2024-02-28T06:40:25;4.90;1.00
10901;DHT22;5503;53.208;10.392;2024-02-28T06:42:53;5.00;1.00
10901;DHT22;5503;53.208;10.392;2024-02-28T06:45:20;5.00;1.00
10901;DHT22;5503;53.208;10.392;2024-02-28T06:47:46;4.80;1.00
10901;DHT22;5503;53.208;10.392;2024-02-28T06:50:14;4.70;1.00
10901;DHT22;5503;53.208;10.392;2024-02-28T06:52:41;4.60;7.10
10901;DHT22;5503;53.208;10.392;2024-02-28T06:55:08;4.50;1.00
10901;DHT22;5503;53.208;10.392;2024-02-28T06:57:36;4.60;67.00
10901;DHT22;5503;53.208;10.392;2024-02-28T07:00:06;4.80;1.00
10901;DHT22;5503;53.208;10.392;2024-02-28T07:02:34;4.80;1.00
10901;DHT22;5503;53.208;10.392;2024-02-28T07:05:01;4.80;1.00
10901;DHT22;5503;53.208;10.392;2024-02-28T07:07:28;5.00;1.00
10901;DHT22;5503;53.208;10.392;2024-02-28T07:09:56;5.20;1.00
10901;DHT22;5503;53.208;10.392;2024-02-28T07:12:23;5.00;1.00
10901;DHT22;5503;53.208;10.392;2024-02-28T07:14:50;5.00;1.00
10901;DHT22;5503;53.208;10.392;2024-02-28T07:17:18;5.10;1.00
10901;DHT22;5503;53.208;10.392;2024-02-28T07:19:45;5.10;1.00
10901;DHT22;5503;53.208;10.392;2024-02-28T07:22:12;5.10;1.00
10901;DHT22;5503;53.208;10.392;2024-02-28T07:24:39;5.20;1.00
10901;DHT22;5503;53.208;10.392;2024-02-28T07:27:07;5.20;1.00
10901;DHT22;5503;53.208;10.392;2024-02-28T07:29:34;7.00;1.00
10901;DHT22;5503;53.208;10.392;2024-02-28T07:32:00;5.30;1.00
10901;DHT22;5503;53.208;10.392;2024-02-28T07:34:29;5.20;1.00
10901;DHT22;5503;53.208;10.392;2024-02-28T07:36:56;6.90;1.00
10901;DHT22;5503;53.208;10.392;2024-02-28T07:39:23;5.60;99.90
10901;DHT22;5503;53.208;10.392;2024-02-28T07:41:50;5.70;99.90
10901;DHT22;5503;53.208;10.392;2024-02-28T07:44:17;5.70;99.90
10901;DHT22;5503;53.208;10.392;2024-02-28T07:46:44;5.80;99.90
10901;DHT22;5503;53.208;10.392;2024-02-28T07:49:12;5.80;99.90
10901;DHT22;5503;53.208;10.392;2024-02-28T07:51:40;5.90;66.00
10901;DHT22;5503;53.208;10.392;2024-02-28T07:54:07;5.90;5.30
10901;DHT22;5503;53.208;10.392;2024-02-28T07:56:34;8.00;67.10
10901;DHT22;5503;53.208;10.392;2024-02-28T07:59:01;6.00;1.00
10901;DHT22;5503;53.208;10.392;2024-02-28T08:01:28;6.00;2.90
10901;DHT22;5503;53.208;10.392;2024-02-28T08:03:56;6.00;1.00
10901;DHT22;5503;53.208;10.392;2024-02-28T08:06:23;6.20;1.00
10901;DHT22;5503;53.208;10.392;2024-02-28T08:08:51;6.00;1.00
10901;DHT22;5503;53.208;10.392;2024-02-28T08:11:18;6.10;1.00
10901;DHT22;5503;53.208;10.392;2024-02-28T08:13:45;7.30;1.00
10901;DHT22;5503;53.208;10.392;2024-02-28T08:16:12;6.10;1.00
10901;DHT22;5503;53.208;10.392;2024-02-28T08:18:39;6.00;1.00
10901;DHT22;5503;53.208;10.392;2024-02-28T08:21:06;6.20;1.00
10901;DHT22;5503;53.208;10.392;2024-02-28T08:23:32;6.50;1.00
10901;DHT22;5503;53.208;10.392;2024-02-28T08:26:01;6.60;99.90
10901;DHT22;5503;53.208;10.392;2024-02-28T08:28:28;6.70;1.00
10901;DHT22;5503;53.208;10.392;2024-02-28T08:30:55;6.60;99.90
10901;DHT22;5503;53.208;10.392;2024-02-28T08:33:22;6.70;1.00
10901;DHT22;5503;53.208;10.392;2024-02-28T08:35:49;6.90;99.90
10901;DHT22;5503;53.208;10.392;2024-02-28T08:38:17;7.00;99.90
10901;DHT22;5503;53.208;10.392;2024-02-28T08:40:43;6.60;99.90
10901;DHT22;5503;53.208;10.392;2024-02-28T08:43:12;6.60;99.90
10901;DHT22;5503;53.208;10.392;2024-02-28T08:45:39;6.60;99.90
10901;DHT22;5503;53.208;10.392;2024-02-28T08:48:06;6.50;1.00
10901;DHT22;5503;53.208;10.392;2024-02-28T08:50:33;7.10;99.90
10901;DHT22;5503;53.208;10.392;2024-02-28T08:53:01;7.40;99.90
10901;DHT22;5503;53.208;10.392;2024-02-28T08:55:28;7.60;8.80
10901;DHT22;5503;53.208;10.392;2024-02-28T08:57:55;7.80;1.00
10901;DHT22;5503;53.208;10.392;2024-02-28T09:00:23;8.00;1.00
10901;DHT22;5503;53.208;10.392;2024-02-28T09:02:50;9.20;1.00
10901;DHT22;5503;53.208;10.392;2024-02-28T09:05:46;8.10;1.00
10901;DHT22;5503;53.208;10.392;2024-02-28T09:08:13;8.00;1.00
10901;DHT22;5503;53.208;10.392;2024-02-28T09:10:40;8.20;99.90
10901;DHT22;5503;53.208;10.392;2024-02-28T09:13:06;8.40;99.90
10901;DHT22;5503;53.208;10.392;2024-02-28T09:15:36;9.50;99.90
10901;DHT22;5503;53.208;10.392;2024-02-28T09:18:04;9.00;99.90
10901;DHT22;5503;53.208;10.392;2024-02-28T09:20:31;8.80;62.60
10901;DHT22;5503;53.208;10.392;2024-02-28T09:22:58;8.70;78.30
10901;DHT22;5503;53.208;10.392;2024-02-28T09:25:24;8.70;23.50
10901;DHT22;5503;53.208;10.392;2024-02-28T09:27:51;8.80;65.40
10901;DHT22;5503;53.208;10.392;2024-02-28T09:30:18;8.80;60.50
10901;DHT22;5503;53.208;10.392;2024-02-28T09:32:46;8.90;99.90
10901;DHT22;5503;53.208;10.392;2024-02-28T09:35:14;9.10;1.00
10901;DHT22;5503;53.208;10.392;2024-02-28T09:37:40;8.70;36.60
10901;DHT22;5503;53.208;10.392;2024-02-28T09:40:09;8.80;99.90
10901;DHT22;5503;53.208;10.392;2024-02-28T09:42:36;8.70;99.90
10901;DHT22;5503;53.208;10.392;2024-02-28T09:45:04;8.60;99.90
10901;DHT22;5503;53.208;10.392;2024-02-28T09:47:34;8.70;99.90
10901;DHT22;5503;53.208;10.392;2024-02-28T09:50:04;10.70;99.90
10901;DHT22;5503;53.208;10.392;2024-02-28T09:52:31;9.10;99.90
10901;DHT22;5503;53.208;10.392;2024-02-28T09:54:58;9.40;94.20
10901;DHT22;5503;53.208;10.392;2024-02-28T09:57:25;9.50;74.70
10901;DHT22;5503;53.208;10.392;2024-02-28T09:59:56;9.70;1.00
10901;DHT22;5503;53.208;10.392;2024-02-28T10:02:26;10.10;1.00
10901;DHT22;5503;53.208;10.392;2024-02-28T10:04:53;10.20;1.00
10901;DHT22;5503;53.208;10.392;2024-02-28T10:07:21;12.40;1.00
10901;DHT22;5503;53.208;10.392;2024-02-28T10:09:48;10.90;99.90
10901;DHT22;5503;53.208;10.392;2024-02-28T10:12:15;11.20;99.90
10901;DHT22;5503;53.208;10.392;2024-02-28T10:14:42;11.20;99.90
10901;DHT22;5503;53.208;10.392;2024-02-28T10:17:09;11.20;99.90
10901;DHT22;5503;53.208;10.392;2024-02-28T10:19:36;11.00;99.90
10901;DHT22;5503;53.208;10.392;2024-02-28T10:22:04;10.80;99.90
10901;DHT22;5503;53.208;10.392;2024-02-28T10:24:34;10.90;99.90
10901;DHT22;5503;53.208;10.392;2024-02-28T10:27:03;10.90;99.90
10901;DHT22;5503;53.208;10.392;2024-02-28T10:29:31;10.90;99.90
10901;DHT22;5503;53.208;10.392;2024-02-28T10:31:58;10.90;99.90
10901;DHT22;5503;53.208;10.392;2024-02-28T10:34:25;10.90;99.90
10901;DHT22;5503;53.208;10.392;2024-02-28T10:36:52;10.90;99.90
10901;DHT22;5503;53.208;10.392;2024-02-28T10:39:19;10.70;99.90
10901;DHT22;5503;53.208;10.392;2024-02-28T10:41:50;10.50;99.90
10901;DHT22;5503;53.208;10.392;2024-02-28T10:44:20;11.00;99.90
10901;DHT22;5503;53.208;10.392;2024-02-28T10:46:49;11.30;99.90
10901;DHT22;5503;53.208;10.392;2024-02-28T10:49:17;11.30;99.90
10901;DHT22;5503;53.208;10.392;2024-02-28T10:51:46;12.80;99.90
10901;DHT22;5503;53.208;10.392;2024-02-28T10:54:14;11.10;99.90
10901;DHT22;5503;53.208;10.392;2024-02-28T10:56:43;11.00;99.90
10901;DHT22;5503;53.208;10.392;2024-02-28T10:59:12;11.00;99.90
10901;DHT22;5503;53.208;10.392;2024-02-28T11:01:40;10.90;99.90
10901;DHT22;5503;53.208;10.392;2024-02-28T11:04:09;11.10;99.90
10901;DHT22;5503;53.208;10.392;2024-02-28T11:06:47;11.10;99.90
10901;DHT22;5503;53.208;10.392;2024-02-28T11:09:19;11.10;99.90
10901;DHT22;5503;53.208;10.392;2024-02-28T11:11:48;11.30;99.90
10901;DHT22;5503;53.208;10.392;2024-02-28T11:14:17;11.50;99.90
10901;DHT22;5503;53.208;10.392;2024-02-28T11:16:47;11.30;99.90
10901;DHT22;5503;53.208;10.392;2024-02-28T11:19:20;11.30;99.90
10901;DHT22;5503;53.208;10.392;2024-02-28T11:21:53;11.40;99.90
10901;DHT22;5503;53.208;10.392;2024-02-28T11:24:23;11.30;99.90
10901;DHT22;5503;53.208;10.392;2024-02-28T11:26:51;11.20;99.90
10901;DHT22;5503;53.208;10.392;2024-02-28T11:29:24;11.10;99.90
10901;DHT22;5503;53.208;10.392;2024-02-28T11:31:51;11.30;99.90
10901;DHT22;5503;53.208;10.392;2024-02-28T11:34:18;11.40;99.90
10901;DHT22;5503;53.208;10.392;2024-02-28T11:36:47;11.60;98.40
10901;DHT22;5503;53.208;10.392;2024-02-28T11:39:16;11.60;59.00
10901;DHT22;5503;53.208;10.392;2024-02-28T11:41:43;11.40;99.90
10901;DHT22;5503;53.208;10.392;2024-02-28T11:44:12;11.50;57.30
10901;DHT22;5503;53.208;10.392;2024-02-28T11:46:44;11.70;1.00
10901;DHT22;5503;53.208;10.392;2024-02-28T11:49:12;11.60;23.40
10901;DHT22;5503;53.208;10.392;2024-02-28T11:51:40;11.50;13.60
10901;DHT22;5503;53.208;10.392;2024-02-28T11:54:08;11.20;70.40
10901;DHT22;5503;53.208;10.392;2024-02-28T11:56:36;11.70;8.60
10901;DHT22;5503;53.208;10.392;2024-02-28T11:59:03;11.90;1.00
10901;DHT22;5503;53.208;10.392;2024-02-28T12:01:37;10.70;1.00
10901;DHT22;5503;53.208;10.392;2024-02-28T12:04:06;12.00;1.00
10901;DHT22;5503;53.208;10.392;2024-02-28T12:06:34;11.60;1.00
10901;DHT22;5503;53.208;10.392;2024-02-28T12:09:02;11.20;14.10
10901;DHT22;5503;53.208;10.392;2024-02-28T12:11:29;12.30;1.00
10901;DHT22;5503;53.208;10.392;2024-02-28T12:13:56;12.60;1.00
10901;DHT22;5503;53.208;10.392;2024-02-28T12:16:24;12.80;1.00
10901;DHT22;5503;53.208;10.392;2024-02-28T12:18:53;12.90;1.00
10901;DHT22;5503;53.208;10.392;2024-02-28T12:21:21;12.60;1.00
10901;DHT22;5503;53.208;10.392;2024-02-28T12:23:50;12.50;1.00
10901;DHT22;5503;53.208;10.392;2024-02-28T12:26:17;12.80;1.00
10901;DHT22;5503;53.208;10.392;2024-02-28T12:28:44;13.00;1.00
10901;DHT22;5503;53.208;10.392;2024-02-28T12:31:11;13.40;1.00
10901;DHT22;5503;53.208;10.392;2024-02-28T12:33:38;13.30;1.00
10901;DHT22;5503;53.208;10.392;2024-02-28T12:36:06;13.40;1.00
10901;DHT22;5503;53.208;10.392;2024-02-28T12:38:35;13.00;1.00
10901;DHT22;5503;53.208;10.392;2024-02-28T12:41:02;13.00;1.00
10901;DHT22;5503;53.208;10.392;2024-02-28T12:43:30;12.80;1.00
10901;DHT22;5503;53.208;10.392;2024-02-28T12:45:57;12.80;1.00
10901;DHT22;5503;53.208;10.392;2024-02-28T12:48:24;12.90;1.00
10901;DHT22;5503;53.208;10.392;2024-02-28T12:50:51;12.70;1.00
10901;DHT22;5503;53.208;10.392;2024-02-28T12:53:18;12.40;1.00
10901;DHT22;5503;53.208;10.392;2024-02-28T12:55:47;12.00;1.00
10901;DHT22;5503;53.208;10.392;2024-02-28T12:58:13;11.90;1.00
10901;DHT22;5503;53.208;10.392;2024-02-28T13:00:40;12.10;1.00
10901;DHT22;5503;53.208;10.392;2024-02-28T13:03:08;12.20;1.00
10901;DHT22;5503;53.208;10.392;2024-02-28T13:05:35;12.30;1.00
10901;DHT22;5503;53.208;10.392;2024-02-28T13:08:03;11.90;1.00
10901;DHT22;5503;53.208;10.392;2024-02-28T13:10:30;12.50;1.00
10901;DHT22;5503;53.208;10.392;2024-02-28T13:13:01;14.00;1.00
10901;DHT22;5503;53.208;10.392;2024-02-28T13:15:28;13.30;1.00
10901;DHT22;5503;53.208;10.392;2024-02-28T13:17:55;13.50;1.00
10901;DHT22;5503;53.208;10.392;2024-02-28T13:20:22;13.80;1.00
10901;DHT22;5503;53.208;10.392;2024-02-28T13:22:49;14.20;1.00
10901;DHT22;5503;53.208;10.392;2024-02-28T13:25:16;14.40;1.00
10901;DHT22;5503;53.208;10.392;2024-02-28T13:27:45;14.40;1.00
10901;DHT22;5503;53.208;10.392;2024-02-28T13:30:14;14.20;1.00
10901;DHT22;5503;53.208;10.392;2024-02-28T13:32:41;14.00;1.00
10901;DHT22;5503;53.208;10.392;2024-02-28T13:35:08;14.00;1.00
10901;DHT22;5503;53.208;10.392;2024-02-28T13:37:36;13.80;1.00
10901;DHT22;5503;53.208;10.392;2024-02-28T13:40:07;13.20;1.00
10901;DHT22;5503;53.208;10.392;2024-02-28T13:42:35;13.80;1.00
10901;DHT22;5503;53.208;10.392;2024-02-28T13:45:03;13.40;1.00
10901;DHT22;5503;53.208;10.392;2024-02-28T13:47:33;13.30;1.00
10901;DHT22;5503;53.208;10.392;2024-02-28T13:50:01;13.20;1.00
10901;DHT22;5503;53.208;10.392;2024-02-28T13:52:27;13.20;1.00
10901;DHT22;5503;53.208;10.392;2024-02-28T13:54:54;13.10;1.00
10901;DHT22;5503;53.208;10.392;2024-02-28T13:57:21;13.00;1.00
10901;DHT22;5503;53.208;10.392;2024-02-28T13:59:48;13.10;1.00
10901;DHT22;5503;53.208;10.392;2024-02-28T14:02:18;13.10;1.00
10901;DHT22;5503;53.208;10.392;2024-02-28T14:04:47;13.20;1.00
10901;DHT22;5503;53.208;10.392;2024-02-28T14:07:14;13.30;1.00
10901;DHT22;5503;53.208;10.392;2024-02-28T14:09:41;13.20;1.00
10901;DHT22;5503;53.208;10.392;2024-02-28T14:12:09;13.00;1.00
10901;DHT22;5503;53.208;10.392;2024-02-28T14:14:36;12.30;1.00
10901;DHT22;5503;53.208;10.392;2024-02-28T14:17:05;11.80;1.00
10901;DHT22;5503;53.208;10.392;2024-02-28T14:19:32;11.70;40.60
10901;DHT22;5503;53.208;10.392;2024-02-28T14:22:03;12.60;70.90
10901;DHT22;5503;53.208;10.392;2024-02-28T14:24:30;12.10;1.00
10901;DHT22;5503;53.208;10.392;2024-02-28T14:26:57;12.00;71.80
10901;DHT22;5503;53.208;10.392;2024-02-28T14:29:24;12.10;1.00
10901;DHT22;5503;53.208;10.392;2024-02-28T14:31:52;12.10;1.00
10901;DHT22;5503;53.208;10.392;2024-02-28T14:34:19;12.30;1.00
10901;DHT22;5503;53.208;10.392;2024-02-28T14:36:46;12.30;1.00
10901;DHT22;5503;53.208;10.392;2024-02-28T14:39:15;12.00;1.00
10901;DHT22;5503;53.208;10.392;2024-02-28T14:41:43;12.20;1.00
10901;DHT22;5503;53.208;10.392;2024-02-28T14:44:10;12.00;96.40
10901;DHT22;5503;53.208;10.392;2024-02-28T14:46:37;12.30;1.00
10901;DHT22;5503;53.208;10.392;2024-02-28T14:49:04;12.40;1.00
10901;DHT22;5503;53.208;10.392;2024-02-28T14:51:31;12.60;1.00
10901;DHT22;5503;53.208;10.392;2024-02-28T14:53:58;12.70;1.00
10901;DHT22;5503;53.208;10.392;2024-02-28T14:56:27;13.40;1.00
10901;DHT22;5503;53.208;10.392;2024-02-28T14:58:54;12.70;1.00
10901;DHT22;5503;53.208;10.392;2024-02-28T15:01:21;11.50;1.00
10901;DHT22;5503;53.208;10.392;2024-02-28T15:03:49;12.50;1.00
10901;DHT22;5503;53.208;10.392;2024-02-28T15:06:16;12.40;1.00
10901;DHT22;5503;53.208;10.392;2024-02-28T15:08:43;12.00;1.00
10901;DHT22;5503;53.208;10.392;2024-02-28T15:11:10;11.90;12.30
10901;DHT22;5503;53.208;10.392;2024-02-28T15:13:38;11.90;66.80
10901;DHT22;5503;53.208;10.392;2024-02-28T15:16:05;12.00;62.00
10901;DHT22;5503;53.208;10.392;2024-02-28T15:18:32;11.90;81.10
10901;DHT22;5503;53.208;10.392;2024-02-28T15:20:59;11.90;93.10
10901;DHT22;5503;53.208;10.392;2024-02-28T15:23:27;12.00;99.90
10901;DHT22;5503;53.208;10.392;2024-02-28T15:25:54;12.00;99.90
10901;DHT22;5503;53.208;10.392;2024-02-28T15:28:21;11.90;99.90
10901;DHT22;5503;53.208;10.392;2024-02-28T15:30:50;12.00;99.90
10901;DHT22;5503;53.208;10.392;2024-02-28T15:33:17;11.90;99.90
10901;DHT22;5503;53.208;10.392;2024-02-28T15:35:44;12.10;99.90
10901;DHT22;5503;53.208;10.392;2024-02-28T15:38:12;13.00;99.90
10901;DHT22;5503;53.208;10.392;2024-02-28T15:40:39;12.10;99.90
10901;DHT22;5503;53.208;10.392;2024-02-28T15:43:06;12.60;99.90
10901;DHT22;5503;53.208;10.392;2024-02-28T15:45:34;12.90;99.90
10901;DHT22;5503;53.208;10.392;2024-02-28T15:48:02;12.10;99.90
10901;DHT22;5503;53.208;10.392;2024-02-28T15:50:29;12.10;99.90